Terminal Aerodrome Forecast
Issued by NWS Wilmington, OH

Home | Current Version | Previous Version | Text Only | Print | Product List | Glossary On
Versions: 1 2 3 4 5 6 7 8 9 10 11 12 13 14 15 16 17 18 19 20 21 22 23
000
FTUS41 KILN 211400 AAA
TAFDAY
TAF AMD
KDAY 211413Z 2114/2212 33011G19KT P6SM OVC025
      TEMPO 2114/2117 BKN015
     FM212200 35008KT P6SM OVC025=

USA.gov is the U.S. government's official web portal to all federal, state and local government web resources and services.